createdAt,value
2022-11-24T00:02:25.798Z,6.70
2022-11-24T00:04:52.811Z,6.80
2022-11-24T00:07:19.691Z,6.70
2022-11-24T00:09:46.531Z,6.50
2022-11-24T00:12:13.321Z,6.60
2022-11-24T00:14:40.090Z,6.70
2022-11-24T00:17:06.956Z,6.80
2022-11-24T00:19:33.791Z,6.80
2022-11-24T00:22:00.577Z,7.00
2022-11-24T00:24:27.365Z,6.90
2022-11-24T00:26:54.190Z,6.80
2022-11-24T00:29:21.059Z,6.80
2022-11-24T00:31:47.844Z,6.80
2022-11-24T00:34:14.894Z,6.50
2022-11-24T00:36:42.049Z,6.40
2022-11-24T00:39:14.120Z,6.20
2022-11-24T00:41:41.238Z,6.20
2022-11-24T00:44:08.104Z,6.30
2022-11-24T00:46:35.105Z,6.40
2022-11-24T00:49:02.050Z,6.40
2022-11-24T00:51:30.532Z,6.50
2022-11-24T00:54:00.986Z,6.40
2022-11-24T00:56:28.695Z,6.30
2022-11-24T00:58:55.557Z,6.30
2022-11-24T01:01:26.844Z,6.50
2022-11-24T01:03:55.323Z,6.50
2022-11-24T01:06:23.947Z,6.50
2022-11-24T01:08:51.010Z,6.50
2022-11-24T01:11:26.405Z,6.40
2022-11-24T01:13:57.774Z,6.60
2022-11-24T01:16:29.739Z,6.60
2022-11-24T01:18:56.710Z,6.40
2022-11-24T01:21:23.561Z,6.30
2022-11-24T01:23:50.496Z,6.40
2022-11-24T01:26:19.876Z,6.40
2022-11-24T01:28:47.819Z,6.30
2022-11-24T01:31:15.157Z,6.20
2022-11-24T01:33:42.105Z,6.00
2022-11-24T01:36:08.929Z,6.00
2022-11-24T01:38:35.727Z,5.80
2022-11-24T01:41:03.445Z,5.90
2022-11-24T01:43:30.444Z,5.70
2022-11-24T01:45:57.286Z,5.70
2022-11-24T01:48:28.379Z,5.70
2022-11-24T01:51:01.806Z,5.80
2022-11-24T01:53:28.621Z,5.90
2022-11-24T01:55:55.431Z,6.00
2022-11-24T01:58:24.431Z,5.90
2022-11-24T02:00:51.201Z,6.00
2022-11-24T02:03:20.609Z,6.10
2022-11-24T02:06:27.103Z,6.00
2022-11-24T02:09:03.048Z,5.90
2022-11-24T02:11:33.483Z,5.90
2022-11-24T02:14:00.254Z,5.80
2022-11-24T02:16:27.081Z,5.70
2022-11-24T02:18:53.879Z,5.80
2022-11-24T02:21:20.663Z,5.90
2022-11-24T02:24:02.760Z,6.10
2022-11-24T02:26:47.890Z,6.00
2022-11-24T02:29:14.827Z,6.10
2022-11-24T02:31:43.556Z,6.10
2022-11-24T02:34:10.356Z,6.10
2022-11-24T02:36:37.243Z,6.20
2022-11-24T02:39:05.654Z,6.10
2022-11-24T02:41:32.428Z,6.00
2022-11-24T02:44:00.888Z,5.60
2022-11-24T02:46:27.769Z,5.80
2022-11-24T02:48:54.723Z,6.10
2022-11-24T02:51:21.699Z,5.90
2022-11-24T02:53:48.491Z,5.70
2022-11-24T02:56:15.418Z,5.90
2022-11-24T02:58:42.216Z,5.70
2022-11-24T03:01:09.252Z,5.40
2022-11-24T03:03:36.109Z,5.80
2022-11-24T03:06:02.898Z,6.10
2022-11-24T03:08:29.793Z,6.10
2022-11-24T03:10:56.588Z,6.10
2022-11-24T03:13:23.373Z,6.30
2022-11-24T03:15:50.210Z,6.20
2022-11-24T03:18:17.020Z,6.40
2022-11-24T03:20:44.217Z,6.30
2022-11-24T03:23:11.260Z,6.30
2022-11-24T03:25:38.080Z,6.30
2022-11-24T03:28:04.907Z,6.20
2022-11-24T03:30:31.770Z,6.20
2022-11-24T03:32:58.636Z,6.10
2022-11-24T03:35:26.015Z,5.90
2022-11-24T03:37:52.854Z,6.00
2022-11-24T03:40:19.706Z,6.00
2022-11-24T03:42:46.533Z,5.80
2022-11-24T03:48:00.093Z,5.90
2022-11-24T03:50:26.875Z,5.80
2022-11-24T03:52:53.650Z,5.40
2022-11-24T03:55:20.476Z,5.20
2022-11-24T03:57:47.936Z,5.40
2022-11-24T04:00:15.180Z,5.20
2022-11-24T04:02:41.991Z,5.40
2022-11-24T04:05:09.597Z,5.00
2022-11-24T04:07:36.477Z,5.40
2022-11-24T04:10:03.403Z,5.20
2022-11-24T04:12:45.479Z,4.90
2022-11-24T04:15:13.831Z,5.10
2022-11-24T04:17:40.637Z,5.00
2022-11-24T04:20:08.090Z,5.10
2022-11-24T04:22:35.756Z,4.80
2022-11-24T04:25:02.801Z,4.80
2022-11-24T04:27:29.572Z,5.10
2022-11-24T04:32:08.872Z,5.10
2022-11-24T04:34:36.282Z,5.00
2022-11-24T04:37:03.165Z,4.70
2022-11-24T04:39:30.021Z,4.70
2022-11-24T04:41:57.690Z,4.70
2022-11-24T04:44:24.464Z,4.90
2022-11-24T04:46:51.409Z,5.10
2022-11-24T04:49:18.355Z,5.10
2022-11-24T04:51:45.247Z,4.70
2022-11-24T04:54:12.651Z,4.50
2022-11-24T04:56:40.238Z,4.60
2022-11-24T04:59:08.638Z,4.50
2022-11-24T05:01:35.733Z,4.60
2022-11-24T05:04:02.674Z,4.80
2022-11-24T05:06:29.579Z,5.00
2022-11-24T05:08:56.772Z,4.80
2022-11-24T05:11:23.571Z,4.60
2022-11-24T05:13:50.395Z,4.90
2022-11-24T05:16:17.242Z,4.90
2022-11-24T05:18:44.141Z,4.90
2022-11-24T05:21:10.987Z,5.00
2022-11-24T05:23:37.776Z,4.50
2022-11-24T05:26:04.619Z,4.70
2022-11-24T05:28:31.652Z,4.80
2022-11-24T05:31:02.275Z,4.90
2022-11-24T05:33:30.154Z,4.90
2022-11-24T05:36:01.180Z,5.00
2022-11-24T05:38:28.119Z,4.50
2022-11-24T05:40:54.980Z,4.50
2022-11-24T05:43:21.855Z,4.40
2022-11-24T05:45:48.667Z,4.30
2022-11-24T05:48:16.290Z,4.20
2022-11-24T05:50:43.116Z,4.40
2022-11-24T05:53:11.452Z,4.30
2022-11-24T05:55:38.741Z,4.30
2022-11-24T05:58:06.810Z,4.10
2022-11-24T06:00:34.031Z,4.10
2022-11-24T06:03:01.042Z,4.00
2022-11-24T06:05:28.495Z,4.00
2022-11-24T06:07:55.446Z,4.00
2022-11-24T06:10:23.854Z,4.20
2022-11-24T06:12:50.804Z,4.20
2022-11-24T06:15:17.635Z,4.30
2022-11-24T06:17:44.610Z,4.50
2022-11-24T06:20:11.744Z,4.60
2022-11-24T06:22:38.629Z,4.60
2022-11-24T06:25:05.920Z,4.50
2022-11-24T06:27:32.776Z,4.80
2022-11-24T06:29:59.625Z,4.60
2022-11-24T06:32:26.504Z,4.80
2022-11-24T06:34:53.297Z,4.90
2022-11-24T06:37:20.136Z,5.10
2022-11-24T06:39:47.035Z,5.30
2022-11-24T06:42:13.868Z,5.30
2022-11-24T06:44:41.741Z,5.70
2022-11-24T06:47:08.601Z,6.10
2022-11-24T06:49:35.406Z,6.30
2022-11-24T06:52:02.223Z,6.40
2022-11-24T06:54:29.057Z,6.40
2022-11-24T06:56:58.991Z,6.50
2022-11-24T06:59:26.485Z,6.60
2022-11-24T07:01:53.509Z,6.90
2022-11-24T07:04:20.372Z,6.90
2022-11-24T07:06:47.166Z,7.30
2022-11-24T07:09:14.420Z,7.80
2022-11-24T07:11:41.530Z,8.70
2022-11-24T07:14:08.450Z,8.90
2022-11-24T07:16:35.617Z,9.40
2022-11-24T07:19:02.591Z,10.40
2022-11-24T07:21:30.709Z,11.40
2022-11-24T07:23:58.499Z,11.90
2022-11-24T07:26:25.708Z,11.80
2022-11-24T07:28:52.647Z,11.60
2022-11-24T07:31:20.982Z,10.90
2022-11-24T07:33:54.356Z,11.10
2022-11-24T07:36:21.792Z,11.30
2022-11-24T07:38:48.767Z,11.80
2022-11-24T07:41:16.486Z,12.10
2022-11-24T07:43:43.413Z,10.70
2022-11-24T07:46:13.406Z,11.60
2022-11-24T07:48:40.410Z,12.70
2022-11-24T07:51:07.426Z,14.00
2022-11-24T07:53:34.458Z,14.10
2022-11-24T07:56:02.075Z,13.80
2022-11-24T07:58:32.587Z,14.00
2022-11-24T08:01:00.107Z,14.30
2022-11-24T08:03:27.025Z,13.00
2022-11-24T08:06:23.184Z,11.50
2022-11-24T08:08:47.269Z,11.80
2022-11-24T08:11:16.097Z,11.40
2022-11-24T08:13:43.021Z,12.70
2022-11-24T08:20:59.710Z,13.70
2022-11-24T08:23:26.831Z,12.50
2022-11-24T08:25:57.007Z,11.80
2022-11-24T08:28:24.297Z,10.50
2022-11-24T08:30:51.297Z,9.90
2022-11-24T08:33:18.123Z,10.00
2022-11-24T08:35:45.094Z,10.30
2022-11-24T08:38:12.017Z,10.00
2022-11-24T08:40:38.894Z,10.20
2022-11-24T08:43:05.737Z,10.20
2022-11-24T08:45:35.479Z,10.00
2022-11-24T08:48:06.622Z,9.80
2022-11-24T08:50:35.605Z,9.60
2022-11-24T08:53:02.450Z,9.40
2022-11-24T08:55:29.265Z,9.30
2022-11-24T08:57:56.067Z,9.40
2022-11-24T09:00:23.814Z,9.30
2022-11-24T09:02:55.577Z,9.30
2022-11-24T09:05:50.047Z,8.90
2022-11-24T09:08:09.344Z,9.10
2022-11-24T09:10:36.474Z,9.00
2022-11-24T09:13:03.435Z,8.90
2022-11-24T09:15:30.245Z,9.30
2022-11-24T09:17:57.701Z,9.40
2022-11-24T09:20:24.685Z,9.50
2022-11-24T09:22:51.573Z,9.70
2022-11-24T09:25:18.498Z,9.60
2022-11-24T09:27:45.412Z,9.90
2022-11-24T09:30:12.798Z,9.90
2022-11-24T09:32:39.631Z,9.90
2022-11-24T09:35:07.417Z,9.90
2022-11-24T09:37:34.521Z,9.80
2022-11-24T09:40:01.320Z,9.80
2022-11-24T09:42:53.702Z,9.70
2022-11-24T09:45:57.163Z,9.50
2022-11-24T09:48:25.208Z,9.40
2022-11-24T09:50:52.108Z,10.00
2022-11-24T09:53:26.027Z,10.00
2022-11-24T09:55:57.231Z,10.20
2022-11-24T09:58:43.722Z,10.50
2022-11-24T10:01:34.204Z,10.60
2022-11-24T10:04:05.897Z,10.70
2022-11-24T10:07:11.074Z,10.10
2022-11-24T10:10:02.536Z,10.20
2022-11-24T10:12:38.079Z,10.60
2022-11-24T10:15:25.752Z,10.70
2022-11-24T10:18:04.295Z,10.60
2022-11-24T10:20:37.468Z,10.80
2022-11-24T10:23:45.507Z,10.70
2022-11-24T10:26:21.150Z,11.00
2022-11-24T10:28:55.497Z,11.30
2022-11-24T10:31:40.400Z,10.60
2022-11-24T10:34:18.374Z,11.20
2022-11-24T10:37:03.184Z,12.10
2022-11-24T10:39:37.323Z,12.00
2022-11-24T10:42:10.377Z,11.80
2022-11-24T10:44:37.232Z,12.00
2022-11-24T10:47:04.053Z,12.30
2022-11-24T10:49:32.584Z,12.20
2022-11-24T10:52:37.979Z,12.40
2022-11-24T10:55:05.573Z,12.60
2022-11-24T10:57:37.645Z,12.50
2022-11-24T11:00:19.731Z,13.00
2022-11-24T11:02:50.109Z,12.90
2022-11-24T11:05:31.912Z,12.90
2022-11-24T11:08:14.454Z,12.40
2022-11-24T11:10:42.248Z,12.10
2022-11-24T11:13:28.491Z,12.30
2022-11-24T11:15:56.345Z,12.70
2022-11-24T11:18:25.471Z,13.30
2022-11-24T11:20:56.928Z,14.30
2022-11-24T11:23:33.850Z,15.40
2022-11-24T11:26:20.523Z,15.70
2022-11-24T11:34:47.259Z,15.40
2022-11-24T11:37:14.731Z,15.00
2022-11-24T11:39:48.439Z,14.30
2022-11-24T11:43:01.465Z,14.60
2022-11-24T11:45:38.230Z,14.60
2022-11-24T11:48:11.139Z,14.70
2022-11-24T11:53:55.798Z,17.70
2022-11-24T11:56:30.336Z,17.10
2022-11-24T11:59:04.401Z,17.00
2022-11-24T12:01:54.227Z,16.50
2022-11-24T12:04:33.502Z,16.60
2022-11-24T12:07:12.466Z,17.40
2022-11-24T12:09:57.787Z,16.90
2022-11-24T12:12:37.608Z,16.50
2022-11-24T12:15:10.355Z,16.10
2022-11-24T12:17:47.932Z,16.30
2022-11-24T12:20:38.811Z,16.10
2022-11-24T12:23:26.699Z,16.10
2022-11-24T12:25:53.460Z,15.80
2022-11-24T12:28:25.975Z,15.80
2022-11-24T12:31:02.684Z,16.00
2022-11-24T12:33:52.330Z,16.00
2022-11-24T12:36:37.416Z,15.80
2022-11-24T12:39:33.549Z,15.20
2022-11-24T12:42:11.634Z,15.40
2022-11-24T12:44:50.601Z,15.60
2022-11-24T12:47:39.176Z,15.70
2022-11-24T12:50:09.103Z,16.10
2022-11-24T12:52:37.768Z,16.90
2022-11-24T12:55:04.950Z,17.30
2022-11-24T12:57:41.751Z,18.10
2022-11-24T13:00:19.577Z,18.30
2022-11-24T13:03:05.529Z,18.20
2022-11-24T13:05:52.905Z,19.00
2022-11-24T13:08:19.684Z,18.80
2022-11-24T13:10:55.722Z,18.00
2022-11-24T13:13:26.546Z,17.30
2022-11-24T13:18:47.837Z,16.50
2022-11-24T13:21:31.811Z,17.00
2022-11-24T13:23:59.473Z,17.40
2022-11-24T13:26:48.448Z,17.10
2022-11-24T13:29:27.895Z,17.10
2022-11-24T13:31:55.474Z,16.30
2022-11-24T13:34:43.671Z,16.20
2022-11-24T13:37:31.192Z,15.90
2022-11-24T13:40:12.275Z,15.30
2022-11-24T13:42:57.771Z,14.90
2022-11-24T13:45:40.335Z,14.50
2022-11-24T13:48:20.319Z,14.00
2022-11-24T13:50:50.299Z,13.80
2022-11-24T13:53:35.940Z,13.60
2022-11-24T13:56:17.476Z,13.70
2022-11-24T13:58:45.564Z,13.80
2022-11-24T14:01:36.060Z,13.90
2022-11-24T14:07:09.210Z,13.90
2022-11-24T14:09:49.769Z,13.80
2022-11-24T14:12:16.616Z,13.70
2022-11-24T14:14:44.495Z,13.40
2022-11-24T14:17:14.729Z,13.30
2022-11-24T14:19:42.569Z,13.30
2022-11-24T14:22:17.107Z,13.20
2022-11-24T14:24:47.222Z,13.30
2022-11-24T14:27:16.392Z,13.20
2022-11-24T14:30:19.754Z,12.90
2022-11-24T14:32:56.911Z,13.10
2022-11-24T14:35:26.932Z,13.20
2022-11-24T14:37:53.903Z,13.20
2022-11-24T14:40:39.589Z,13.30
2022-11-24T14:43:15.859Z,13.40
2022-11-24T14:45:50.758Z,13.10
2022-11-24T14:48:18.010Z,12.90
2022-11-24T14:50:44.893Z,12.80
2022-11-24T14:53:15.313Z,12.60
2022-11-24T14:55:42.397Z,12.40
2022-11-24T14:58:29.745Z,12.30
2022-11-24T15:01:19.277Z,12.30
2022-11-24T15:03:46.598Z,12.20
2022-11-24T15:06:19.864Z,12.10
2022-11-24T15:08:47.689Z,11.80
2022-11-24T15:11:14.606Z,11.60
2022-11-24T15:13:41.638Z,11.30
2022-11-24T15:16:16.068Z,11.00
2022-11-24T15:18:44.924Z,10.90
2022-11-24T15:21:17.471Z,11.10
2022-11-24T15:24:11.542Z,11.20
2022-11-24T15:26:41.906Z,11.00
2022-11-24T15:29:10.396Z,10.70
2022-11-24T15:31:37.866Z,10.80
2022-11-24T15:34:04.740Z,10.80
2022-11-24T15:36:31.966Z,10.50
2022-11-24T15:38:58.885Z,10.50
2022-11-24T15:41:29.665Z,10.40
2022-11-24T15:43:59.424Z,10.20
2022-11-24T15:46:29.927Z,10.10
2022-11-24T15:48:57.301Z,10.20
2022-11-24T15:51:25.432Z,10.20
2022-11-24T15:53:58.706Z,10.20
2022-11-24T15:56:34.580Z,10.00
2022-11-24T15:59:01.801Z,9.80
2022-11-24T16:01:33.095Z,9.70
2022-11-24T16:04:00.739Z,9.70
2022-11-24T16:06:27.676Z,9.70
2022-11-24T16:08:54.650Z,9.60
2022-11-24T16:11:22.282Z,9.70
2022-11-24T16:13:52.906Z,9.70
2022-11-24T16:16:20.577Z,9.70
2022-11-24T16:18:47.506Z,9.40
2022-11-24T16:21:14.443Z,9.10
2022-11-24T16:23:41.306Z,9.00
2022-11-24T16:26:08.096Z,8.90
2022-11-24T16:28:34.906Z,8.80
2022-11-24T16:31:01.761Z,8.90
2022-11-24T16:33:31.282Z,9.00
2022-11-24T16:35:58.554Z,9.10
2022-11-24T16:38:25.328Z,9.00
2022-11-24T16:40:52.899Z,8.80
2022-11-24T16:43:19.847Z,8.70
2022-11-24T16:45:46.871Z,8.70
2022-11-24T16:48:13.735Z,8.70
2022-11-24T16:50:40.631Z,8.50
2022-11-24T16:53:07.560Z,8.30
2022-11-24T16:55:34.411Z,8.30
2022-11-24T16:58:04.029Z,8.50
2022-11-24T17:00:30.849Z,8.50
2022-11-24T17:02:57.769Z,8.40
2022-11-24T17:05:25.613Z,8.10
2022-11-24T17:07:52.539Z,8.30
2022-11-24T17:10:19.564Z,8.40
2022-11-24T17:12:46.348Z,8.10
2022-11-24T17:17:26.816Z,8.30
2022-11-24T17:19:53.631Z,8.30
2022-11-24T17:22:20.472Z,8.00
2022-11-24T17:24:47.282Z,8.00
2022-11-24T17:27:14.093Z,7.90
2022-11-24T17:29:40.942Z,7.90
2022-11-24T17:32:07.840Z,7.60
2022-11-24T17:34:34.867Z,7.60
2022-11-24T17:37:01.955Z,7.80
2022-11-24T17:39:28.750Z,7.80
2022-11-24T17:41:55.616Z,7.60
2022-11-24T17:44:22.510Z,7.60
2022-11-24T17:46:49.428Z,7.80
2022-11-24T17:49:16.236Z,7.70
2022-11-24T17:51:43.112Z,7.90
2022-11-24T17:54:39.171Z,7.80
2022-11-24T17:56:56.827Z,7.80
2022-11-24T17:59:23.655Z,7.50
2022-11-24T18:01:50.596Z,7.30
2022-11-24T18:04:17.591Z,7.60
2022-11-24T18:06:44.539Z,7.70
2022-11-24T18:09:11.484Z,7.50
2022-11-24T18:11:38.300Z,7.30
2022-11-24T18:14:05.242Z,7.50
2022-11-24T18:16:33.106Z,7.40
2022-11-24T18:19:08.860Z,7.50
2022-11-24T18:21:43.733Z,7.60
2022-11-24T18:24:11.155Z,7.50
2022-11-24T18:26:38.953Z,7.40
2022-11-24T18:29:05.946Z,7.30
2022-11-24T18:31:35.307Z,7.40
2022-11-24T18:34:02.827Z,7.40
2022-11-24T18:36:30.753Z,7.40
2022-11-24T18:39:00.686Z,7.20
2022-11-24T18:41:27.486Z,6.90
2022-11-24T18:43:54.363Z,7.10
2022-11-24T18:46:21.381Z,7.10
2022-11-24T18:48:48.328Z,7.00
2022-11-24T18:51:15.177Z,7.10
2022-11-24T18:53:46.173Z,7.10
2022-11-24T18:56:15.404Z,7.00
2022-11-24T18:58:42.385Z,6.70
2022-11-24T19:01:19.385Z,6.70
2022-11-24T19:03:49.251Z,6.60
2022-11-24T19:06:33.205Z,6.50
2022-11-24T19:09:07.868Z,6.50
2022-11-24T19:11:38.720Z,6.50
2022-11-24T19:14:07.377Z,6.60
2022-11-24T19:16:34.509Z,7.00
2022-11-24T19:19:02.620Z,6.70
2022-11-24T19:21:33.909Z,6.90
2022-11-24T19:24:04.958Z,7.00
2022-11-24T19:26:35.070Z,6.90
2022-11-24T19:29:02.183Z,7.00
2022-11-24T19:31:29.033Z,6.90
2022-11-24T19:33:57.979Z,6.90
2022-11-24T19:36:26.055Z,7.00
2022-11-24T19:38:54.090Z,6.90
2022-11-24T19:41:24.228Z,7.00
2022-11-24T19:43:53.432Z,7.00
2022-11-24T19:46:20.450Z,7.10
2022-11-24T19:48:50.308Z,7.00
2022-11-24T19:51:22.780Z,7.00
2022-11-24T19:53:49.666Z,7.10
2022-11-24T19:56:20.746Z,7.00
2022-11-24T19:58:48.026Z,7.00
2022-11-24T20:01:24.948Z,6.90
2022-11-24T20:04:02.313Z,7.00
2022-11-24T20:06:31.371Z,6.60
2022-11-24T20:08:58.859Z,6.90
2022-11-24T20:11:25.880Z,6.90
2022-11-24T20:13:52.738Z,6.90
2022-11-24T20:16:25.958Z,6.90
2022-11-24T20:18:53.969Z,6.70
2022-11-24T20:21:21.727Z,6.50
2022-11-24T20:23:53.854Z,6.40
2022-11-24T20:26:22.915Z,6.40
2022-11-24T20:28:50.383Z,6.60
2022-11-24T20:31:19.135Z,6.80
2022-11-24T20:33:46.094Z,6.90
2022-11-24T20:36:17.624Z,6.70
2022-11-24T20:38:44.625Z,6.60
2022-11-24T20:41:18.156Z,6.60
2022-11-24T20:43:45.533Z,6.60
2022-11-24T20:46:13.698Z,6.40
2022-11-24T20:48:40.640Z,6.60
2022-11-24T20:51:12.618Z,6.80
2022-11-24T20:53:39.465Z,6.80
2022-11-24T20:56:10.453Z,6.70
2022-11-24T20:58:37.691Z,6.70
2022-11-24T21:01:12.374Z,6.60
2022-11-24T21:03:43.043Z,6.40
2022-11-24T21:06:11.080Z,6.60
2022-11-24T21:08:38.430Z,6.70
2022-11-24T21:11:07.762Z,6.60
2022-11-24T21:13:35.829Z,6.70
2022-11-24T21:16:15.201Z,6.60
2022-11-24T21:18:42.845Z,6.70
2022-11-24T21:21:09.741Z,6.50
2022-11-24T21:23:36.606Z,6.60
2022-11-24T21:26:05.655Z,6.60
2022-11-24T21:28:33.036Z,6.50
2022-11-24T21:31:06.948Z,6.40
2022-11-24T21:33:34.009Z,6.50
2022-11-24T21:36:04.944Z,6.60
2022-11-24T21:38:31.905Z,6.60
2022-11-24T21:41:08.696Z,6.50
2022-11-24T21:43:35.674Z,6.60
2022-11-24T21:46:07.221Z,6.40
2022-11-24T21:48:34.624Z,6.40
2022-11-24T21:51:05.428Z,6.30
2022-11-24T21:53:33.903Z,6.40
2022-11-24T21:56:02.009Z,6.30
2022-11-24T21:58:29.091Z,6.30
2022-11-24T22:01:03.062Z,6.30
2022-11-24T22:03:32.559Z,6.30
2022-11-24T22:06:00.091Z,6.00
2022-11-24T22:08:28.467Z,6.10
2022-11-24T22:11:00.910Z,6.20
2022-11-24T22:13:27.753Z,6.30
2022-11-24T22:16:08.154Z,6.00
2022-11-24T22:18:39.356Z,5.70
2022-11-24T22:21:06.990Z,5.70
2022-11-24T22:23:34.442Z,6.00
2022-11-24T22:26:14.255Z,5.80
2022-11-24T22:28:41.928Z,6.10
2022-11-24T22:31:13.765Z,6.20
2022-11-24T22:33:40.638Z,5.90
2022-11-24T22:36:07.826Z,6.10
2022-11-24T22:38:34.773Z,6.10
2022-11-24T22:41:02.827Z,6.20
2022-11-24T22:43:31.705Z,5.90
2022-11-24T22:46:01.917Z,6.10
2022-11-24T22:48:28.756Z,6.20
2022-11-24T22:51:04.311Z,6.40
2022-11-24T22:53:31.156Z,5.90
2022-11-24T22:56:01.554Z,5.70
2022-11-24T22:58:28.876Z,6.20
2022-11-24T23:00:55.695Z,6.10
2022-11-24T23:03:22.613Z,6.00
2022-11-24T23:05:49.633Z,5.90
2022-11-24T23:08:16.446Z,6.20
2022-11-24T23:10:43.266Z,6.30
2022-11-24T23:13:10.087Z,6.10
2022-11-24T23:15:36.887Z,6.00
2022-11-24T23:18:03.764Z,5.90
2022-11-24T23:20:30.567Z,6.00
2022-11-24T23:22:57.403Z,6.00
2022-11-24T23:25:24.174Z,6.00
2022-11-24T23:27:50.926Z,5.70
2022-11-24T23:30:17.844Z,5.70
2022-11-24T23:32:44.639Z,5.90
2022-11-24T23:35:14.040Z,6.00
2022-11-24T23:38:06.132Z,5.90
2022-11-24T23:40:28.843Z,5.80
2022-11-24T23:42:55.733Z,6.00
2022-11-24T23:45:22.558Z,6.10
2022-11-24T23:47:49.375Z,6.00
2022-11-24T23:50:16.232Z,6.00
2022-11-24T23:52:43.073Z,6.00
2022-11-24T23:55:09.861Z,6.00
2022-11-24T23:57:36.650Z,6.00
